Westboro, Missouri
Current Conditions -  °F | °C
As of 2:55 AM on Friday 24 Oct 2014 (Local Time) from KSDA Reporting Station
Moderate Fog Moderate Fog  
Wind Chill: 54°   Ceiling: 200
Heat Index: 54°   Visibility: 0mi
Dew Point: 54°   Wind: 3mph
Humidity: 100%   Direction: 180°S
Pressure: 30.02"   Gusts: NA
Location:  40.53°N, 95.32°W
Report Text: KSDA 240755Z AUTO 18003KT M1/4SM FG OVC002 12/12 A3002 RMK AO2
Loading
Personal Weather Stations






























Interactive Weather Map
Tropical Storm Tracking
New forecast layout! Learn more

10-Day Weather Forecast

Advertisements
Track Severe Weather on mobile